Time;durP1;ratioP1;P1;durP2;ratioP2;P2;SDS_P1;SDS_P2;PMS_P1;PMS_P2;Temp;Humidity;BMP_temperature;BMP_pressure;BME280_temperature;BME280_humidity;BME280_pressure;Samples;Min_cycle;Max_cycle;Signal;HPM_P1;HPM_P2
2023/07/01 00:02:39;;;;;;;;;;;;;;;19.21;70.37;100183.29;105396;1300;59633;-84
2023/07/01 00:05:45;;;;;;;12.00;4.40;;;;;;;19.16;70.55;100188.81;105376;1300;59740;-84
2023/07/01 00:09:13;;;;;;;6.80;4.00;;;;;;;19.11;70.24;100191.52;105271;1302;75334;-85
2023/07/01 00:12:59;;;;;;;14.60;4.00;;;;;;;19.08;70.38;100193.27;105357;1305;69220;-85
2023/07/01 00:16:45;;;;;;;8.70;4.40;;;;;;;19.06;70.42;100191.30;105451;1299;71504;-85
2023/07/01 00:20:12;;;;;;;5.30;3.40;;;;;;;19.04;70.44;100187.89;105361;1302;59436;-85
2023/07/01 00:24:00;;;;;;;7.30;3.40;;;;;;;18.99;70.60;100189.42;105397;1300;58755;-84
2023/07/01 00:27:34;;;;;;;7.30;3.70;;;;;;;18.94;70.53;100186.55;105376;1301;73478;-84
2023/07/01 00:31:02;;;;;;;9.40;3.50;;;;;;;18.90;70.61;100182.97;105393;1301;68374;-84
2023/07/01 00:34:50;;;;;;;6.40;3.10;;;;;;;18.88;70.58;100180.77;105374;1302;72560;-84
2023/07/01 00:38:32;;;;;;;10.60;3.60;;;;;;;18.87;70.75;100176.48;105409;1302;58969;-87
2023/07/01 00:42:20;;;;;;;8.00;2.90;;;;;;;18.84;70.68;100177.52;105442;1299;58959;-87
2023/07/01 00:46:07;;;;;;;6.70;3.40;;;;;;;18.83;70.81;100176.04;105357;1302;73440;-87
2023/07/01 00:49:37;;;;;;;7.70;3.60;;;;;;;18.80;70.70;100171.45;105407;1302;68661;-87
2023/07/01 00:53:24;;;;;;;9.80;3.60;;;;;;;18.79;70.76;100170.48;105369;1301;70479;-87
2023/07/01 00:57:10;;;;;;;10.80;3.40;;;;;;;18.77;70.78;100175.48;105376;1301;58870;-87
2023/07/01 01:00:56;;;;;;;7.10;2.90;;;;;;;18.71;70.87;100172.90;105346;1302;60001;-86
2023/07/01 01:04:23;;;;;;;8.80;3.40;;;;;;;18.68;70.93;100173.76;105423;1299;73384;-87
2023/07/01 01:07:50;;;;;;;9.00;3.20;;;;;;;18.62;70.92;100173.74;105362;1299;67464;-86
2023/07/01 01:11:35;;;;;;;11.70;2.70;;;;;;;18.58;71.01;100163.45;101553;1299;5170856;-87
2023/07/01 01:15:22;;;;;;;10.10;3.20;;;;;;;18.56;70.99;100161.15;105365;1302;58891;-87
2023/07/01 01:19:08;;;;;;;7.10;3.40;;;;;;;18.56;70.96;100155.03;105442;1300;58987;-87
2023/07/01 01:23:13;;;;;;;6.50;2.90;;;;;;;18.50;71.07;100150.13;105394;1302;74476;-87
2023/07/01 01:26:59;;;;;;;5.80;2.60;;;;;;;18.49;71.07;100151.07;104235;1312;67134;-87
2023/07/01 01:30:26;;;;;;;6.10;2.70;;;;;;;18.48;71.10;100155.82;100439;1311;5057827;-86
2023/07/01 01:33:58;;;;;;;6.80;3.20;;;;;;;18.47;71.12;100152.22;104111;1314;59425;-87
2023/07/01 01:37:44;;;;;;;5.50;2.70;;;;;;;18.46;71.08;100155.56;104153;1312;59908;-87
2023/07/01 01:41:39;;;;;;;9.70;2.80;;;;;;;18.45;71.16;100155.95;104264;1312;75110;-87
2023/07/01 01:45:06;;;;;;;;;;;;;;;18.43;71.21;100157.29;104165;1313;67605;-87
2023/07/01 01:48:32;;;;;;;5.70;2.50;;;;;;;18.44;71.20;100155.52;103840;1317;72450;-87
2023/07/01 01:52:03;;;;;;;8.30;2.90;;;;;;;18.42;71.22;100155.27;103750;1317;59368;-86
2023/07/01 01:55:48;;;;;;;4.20;2.50;;;;;;;18.39;71.13;100160.86;103375;1321;59059;-87
2023/07/01 01:59:34;;;;;;;6.40;2.70;;;;;;;18.36;71.26;100163.10;103303;1323;74423;-88
2023/07/01 02:03:21;;;;;;;7.90;3.30;;;;;;;18.32;71.29;100160.19;103785;1313;67628;-87
2023/07/01 02:07:03;;;;;;;4.70;2.90;;;;;;;18.34;71.31;100166.23;104152;1311;71339;-85
2023/07/01 02:10:29;;;;;;;6.20;2.80;;;;;;;18.33;71.32;100171.66;104132;1313;59138;-85
2023/07/01 02:14:17;;;;;;;5.80;3.50;;;;;;;18.28;71.27;100177.52;104175;1312;59418;-85
2023/07/01 02:18:03;;;;;;;6.60;3.00;;;;;;;18.22;71.32;100167.73;104136;1313;74561;-85
2023/07/01 02:21:50;;;;;;;8.50;3.40;;;;;;;18.10;71.22;100152.72;104631;1308;67188;-85
2023/07/01 02:25:36;;;;;;;3.30;2.90;;;;;;;17.97;71.49;100148.91;104082;1314;72355;-87
2023/07/01 02:29:23;;;;;;;9.00;3.30;;;;;;;17.97;71.43;100149.05;103971;1314;59639;-87
2023/07/01 02:33:10;;;;;;;3.10;2.60;;;;;;;17.98;71.47;100152.69;104209;1312;59239;-86
2023/07/01 02:36:56;;;;;;;7.00;3.30;;;;;;;17.98;71.47;100148.50;104164;1313;74105;-87
2023/07/01 02:40:42;;;;;;;4.80;3.00;;;;;;;17.96;71.49;100154.70;104220;1311;68038;-88
2023/07/01 02:44:29;;;;;;;5.80;3.00;;;;;;;17.92;71.42;100149.20;104191;1308;71287;-87
2023/07/01 02:48:15;;;;;;;5.10;3.10;;;;;;;17.84;71.53;100142.98;104866;1307;59400;-87
2023/07/01 02:52:01;;;;;;;3.00;2.70;;;;;;;17.83;71.53;100149.81;104798;1306;59137;-88
2023/07/01 02:55:49;;;;;;;4.30;3.10;;;;;;;17.79;71.47;100143.76;104878;1305;74146;-87
2023/07/01 02:59:35;;;;;;;6.90;2.90;;;;;;;17.73;71.44;100139.90;105138;1305;69121;-87
2023/07/01 03:03:22;;;;;;;4.10;1.90;;;;;;;17.68;71.53;100144.86;105056;1304;72563;-88
2023/07/01 03:07:09;;;;;;;1.90;1.80;;;;;;;17.63;71.44;100138.17;105110;1305;59744;-87
2023/07/01 03:10:55;;;;;;;1.80;1.70;;;;;;;17.57;71.47;100131.88;104398;1311;60230;-87
2023/07/01 03:14:43;;;;;;;1.80;1.70;;;;;;;17.52;71.49;100137.66;104493;1309;73738;-87
2023/07/01 03:18:29;;;;;;;2.70;2.50;;;;;;;17.53;71.64;100140.39;104435;1311;68839;-87
2023/07/01 03:22:15;;;;;;;3.50;2.50;;;;;;;17.56;71.71;100134.70;104667;1308;71449;-87
2023/07/01 03:25:42;;;;;;;4.50;2.10;;;;;;;17.52;71.67;100134.54;104603;1308;59410;-86
2023/07/01 03:29:10;;;;;;;2.70;2.50;;;;;;;17.56;71.60;100130.52;104688;1308;59048;-86
2023/07/01 03:32:57;;;;;;;3.10;2.90;;;;;;;17.58;71.71;100141.56;104696;1307;72226;-86
2023/07/01 03:36:43;;;;;;;2.40;2.20;;;;;;;17.60;71.56;100138.48;104672;1308;68447;-87
2023/07/01 03:40:30;;;;;;;2.10;2.00;;;;;;;17.62;71.70;100138.59;104729;1308;70795;-87
2023/07/01 03:44:17;;;;;;;2.60;2.50;;;;;;;17.63;71.67;100139.02;104704;1307;59320;-87
2023/07/01 03:48:04;;;;;;;4.70;3.30;;;;;;;17.68;71.70;100140.50;105105;1301;59803;-87
2023/07/01 03:51:51;;;;;;;5.00;3.20;;;;;;;17.71;71.82;100139.45;104686;1308;73523;-87
2023/07/01 03:55:37;;;;;;;3.90;2.90;;;;;;;17.74;71.74;100139.68;104724;1308;68167;-87
2023/07/01 03:59:23;;;;;;;3.00;2.80;;;;;;;17.77;71.73;100140.55;104709;1308;71778;-87
2023/07/01 04:03:08;;;;;;;4.70;2.90;;;;;;;17.81;71.75;100142.61;104650;1308;59446;-87
2023/07/01 04:06:37;;;;;;;5.30;2.90;;;;;;;17.86;71.86;100145.80;104663;1308;58901;-87
2023/07/01 04:10:23;;;;;;;3.10;2.80;;;;;;;17.93;71.86;100148.58;104707;1308;75296;-87
2023/07/01 04:14:10;;;;;;;3.10;2.90;;;;;;;17.98;71.96;100146.92;104629;1308;66810;-87
2023/07/01 04:17:57;;;;;;;3.50;2.70;;;;;;;18.06;71.93;100140.41;104581;1308;73363;-87
2023/07/01 04:21:45;;;;;;;3.30;3.10;;;;;;;18.14;72.00;100133.67;104595;1308;59685;-87
2023/07/01 04:25:32;;;;;;;4.00;3.10;;;;;;;18.22;71.99;100127.98;104742;1307;58984;-87
2023/07/01 04:29:19;;;;;;;3.80;3.30;;;;;;;18.36;72.14;100119.67;104901;1304;74906;-87
2023/07/01 04:33:05;;;;;;;5.00;3.50;;;;;;;18.47;72.12;100120.28;104737;1307;67612;-87
2023/07/01 04:36:52;;;;;;;5.80;3.30;;;;;;;18.55;72.10;100116.12;104752;1307;71178;-87
2023/07/01 04:40:48;;;;;;;;;;;;;;;;;;;;;
2023/07/01 04:44:25;;;;;;;6.30;3.60;;;;;;;18.90;71.92;100114.98;104461;1310;60293;-87
2023/07/01 04:48:12;;;;;;;6.20;3.40;;;;;;;19.04;71.98;100115.94;104529;1310;73204;-87
2023/07/01 04:51:59;;;;;;;8.50;3.80;;;;;;;19.14;71.91;100122.51;104489;1311;67430;-88
2023/07/01 04:55:45;;;;;;;10.50;3.90;;;;;;;19.29;71.97;100122.47;104102;1313;73221;-87
2023/07/01 04:59:32;;;;;;;6.20;4.50;;;;;;;19.49;71.98;100121.61;103493;1319;59503;-87
2023/07/01 05:03:19;;;;;;;9.90;5.20;;;;;;;19.64;71.73;100116.53;103646;1317;60002;-87
2023/07/01 05:07:05;;;;;;;6.30;4.50;;;;;;;19.78;71.68;100121.38;103776;1317;74763;-88
2023/07/01 05:10:52;;;;;;;7.80;4.70;;;;;;;19.99;71.75;100121.97;103707;1317;68361;-87
2023/07/01 05:14:38;;;;;;;7.80;4.50;;;;;;;20.37;71.74;100125.70;103694;1317;72288;-86
2023/07/01 05:18:25;;;;;;;19.40;5.00;;;;;;;20.77;71.30;100127.64;103838;1315;59195;-86
2023/07/01 05:22:12;;;;;;;6.20;3.60;;;;;;;21.05;70.85;100127.48;103934;1313;60686;-85
2023/07/01 05:25:58;;;;;;;7.40;3.00;;;;;;;21.45;71.00;100123.74;103902;1314;74169;-86
2023/07/01 05:29:45;;;;;;;10.30;3.40;;;;;;;22.09;70.81;100121.34;103898;1316;67292;-86
2023/07/01 05:33:31;;;;;;;3.60;3.10;;;;;;;22.36;70.16;100122.16;104552;1308;72101;-87
2023/07/01 05:37:18;;;;;;;5.50;2.90;;;;;;;22.70;70.26;100124.95;105297;1301;59241;-86
2023/07/01 05:41:04;;;;;;;4.40;2.80;;;;;;;23.22;69.94;100126.95;105375;1302;59958;-86
2023/07/01 05:44:51;;;;;;;5.40;2.90;;;;;;;23.67;69.77;100126.50;105423;1299;73395;-87
2023/07/01 05:48:37;;;;;;;4.80;2.90;;;;;;;24.17;69.32;100127.02;105394;1302;68511;-86
2023/07/01 05:52:24;;;;;;;7.80;3.00;;;;;;;24.65;68.87;100122.74;105399;1300;73430;-86
2023/07/01 05:56:10;;;;;;;5.90;2.70;;;;;;;24.72;68.21;100124.48;105318;1302;60265;-86
2023/07/01 06:00:07;;;;;;;;;;;;;;;;;;;;;
2023/07/01 06:03:44;;;;;;;9.40;2.40;;;;;;;24.67;67.95;100127.31;105392;1299;73671;-87
2023/07/01 06:07:30;;;;;;;6.00;2.30;;;;;;;24.57;67.79;100132.22;105346;1302;67394;-86
2023/07/01 06:11:17;;;;;;;4.70;2.10;;;;;;;24.47;67.17;100131.48;105383;1300;72053;-86
2023/07/01 06:15:03;;;;;;;6.80;2.10;;;;;;;24.37;67.13;100131.98;104708;1307;59419;-86
2023/07/01 06:18:50;;;;;;;4.90;2.40;;;;;;;24.24;67.04;100135.61;104034;1313;59125;-87
2023/07/01 06:22:36;;;;;;;4.90;2.50;;;;;;;24.10;66.59;100133.08;104147;1314;73466;-87
2023/07/01 06:26:23;;;;;;;3.20;2.00;;;;;;;24.10;66.23;100129.70;104150;1311;67444;-86
2023/07/01 06:30:10;;;;;;;4.20;2.80;;;;;;;24.14;65.98;100127.62;104089;1311;71332;-86
2023/07/01 06:33:38;;;;;;;3.50;2.10;;;;;;;24.15;65.41;100130.02;103786;1317;59400;-86
2023/07/01 06:37:23;;;;;;;3.90;2.00;;;;;;;24.10;65.30;100127.96;103768;1316;59064;-86
2023/07/01 06:41:10;;;;;;;2.90;1.70;;;;;;;23.96;64.84;100124.81;103799;1316;73258;-86
2023/07/01 06:44:57;;;;;;;3.30;1.70;;;;;;;23.84;64.65;100127.75;103740;1316;68864;-86
2023/07/01 06:48:44;;;;;;;2.40;1.60;;;;;;;23.83;64.49;100125.59;103779;1316;72624;-86
2023/07/01 06:52:31;;;;;;;4.70;1.60;;;;;;;23.78;64.00;100125.98;104452;1309;59408;-86
2023/07/01 06:56:17;;;;;;;2.50;1.60;;;;;;;23.64;63.60;100126.55;104977;1304;60490;-86
2023/07/01 07:00:03;;;;;;;4.10;1.90;;;;;;;23.75;63.50;100127.61;105168;1302;74874;-86
2023/07/01 07:03:50;;;;;;;3.00;2.00;;;;;;;23.87;63.12;100128.95;104769;1305;67513;-86
2023/07/01 07:07:36;;;;;;;3.80;1.40;;;;;;;23.97;63.02;100127.77;104918;1305;71041;-86
2023/07/01 07:11:23;;;;;;;2.90;1.80;;;;;;;24.34;62.91;100131.13;104916;1305;58993;-86
2023/07/01 07:15:09;;;;;;;4.40;1.70;;;;;;;24.65;62.49;100128.23;104906;1305;59199;-86
2023/07/01 07:18:56;;;;;;;5.20;2.00;;;;;;;25.01;62.06;100120.49;104221;1311;73651;-87
2023/07/01 07:22:42;;;;;;;3.00;1.60;;;;;;;25.63;61.67;100116.78;104293;1311;67690;-87
2023/07/01 07:26:42;;;;;;;;;;;;;;;;;;;;;
2023/07/01 07:30:17;;;;;;;8.20;2.40;;;;;;;26.86;60.54;100112.09;104318;1312;59199;-87
2023/07/01 07:34:04;;;;;;;9.60;2.50;;;;;;;26.77;60.26;100108.27;104313;1312;59075;-88
2023/07/01 07:37:51;;;;;;;4.00;1.90;;;;;;;26.61;60.22;100107.81;104228;1312;74990;-88
2023/07/01 07:41:38;;;;;;;3.00;2.20;;;;;;;26.56;60.04;100108.23;104908;1306;67463;-88
2023/07/01 07:45:24;;;;;;;4.20;2.20;;;;;;;26.70;59.66;100105.02;104799;1308;71357;-88
2023/07/01 07:49:11;;;;;;;4.80;2.00;;;;;;;27.17;59.18;100099.95;104789;1306;59372;-86
2023/07/01 07:52:57;;;;;;;4.30;2.00;;;;;;;28.07;59.04;100101.08;100928;1308;5192266;-86
2023/07/01 07:56:44;;;;;;;7.10;2.50;;;;;;;29.16;58.03;100097.60;105348;1299;67819;-87
2023/07/01 08:00:30;;;;;;;2.60;1.90;;;;;;;30.33;57.63;100089.39;105403;1299;72571;-86
2023/07/01 08:04:16;;;;;;;5.50;2.20;;;;;;;31.09;57.03;100084.27;105347;1301;59038;-87
2023/07/01 08:07:40;;;;;;;4.80;2.00;;;;;;;32.14;56.72;100085.55;105384;1301;58949;-86
2023/07/01 08:10:50;;;;;;;2.70;2.00;;;;;;;32.97;56.11;100079.50;105412;1299;74583;-86
2023/07/01 08:14:24;;;;;;;4.50;2.10;;;;;;;33.86;55.29;100070.24;105344;1299;66960;-86
2023/07/01 08:17:20;;;;;;;4.40;1.90;;;;;;;35.42;55.09;100069.20;105384;1301;71457;-86
2023/07/01 08:20:31;;;;;;;6.10;1.80;;;;;;;36.41;54.18;100067.36;105397;1299;59170;-87
2023/07/01 08:23:38;;;;;;;5.40;2.10;;;;;;;36.74;53.54;100068.85;105315;1300;59272;-86
2023/07/01 08:26:26;;;;;;;3.40;1.50;;;;;;;36.60;52.97;100065.73;105256;1301;73475;-86
2023/07/01 08:29:13;;;;;;;3.30;2.20;;;;;;;36.45;52.13;100066.26;105377;1302;67482;-86
2023/07/01 08:32:00;;;;;;;4.00;1.90;;;;;;;36.20;51.53;100065.76;105156;1302;72422;-86
2023/07/01 08:34:47;;;;;;;12.90;2.10;;;;;;;37.05;51.44;100059.36;105299;1302;59039;-86
2023/07/01 08:37:42;;;;;;;3.60;1.80;;;;;;;38.19;49.90;100057.04;105389;1300;59827;-86
2023/07/01 08:40:29;;;;;;;;;;;;;;;39.26;49.45;100055.89;105392;1301;73442;-86
2023/07/01 08:43:15;;;;;;;5.20;2.20;;;;;;;40.38;48.64;100056.35;105380;1302;68632;-85
2023/07/01 08:46:09;;;;;;;3.80;2.10;;;;;;;41.32;48.02;100053.69;105308;1302;71413;-84
2023/07/01 08:49:03;;;;;;;4.00;2.30;;;;;;;42.23;46.83;100051.20;105255;1301;58989;-85
2023/07/01 08:52:03;;;;;;;3.40;2.20;;;;;;;42.85;45.34;100049.22;105300;1302;59174;-85
2023/07/01 08:54:56;;;;;;;11.00;2.60;;;;;;;43.30;44.78;100046.67;105373;1299;74295;-85
2023/07/01 08:57:43;;;;;;;2.80;2.60;;;;;;;43.48;43.36;100046.47;105285;1300;68948;-85
2023/07/01 09:00:31;;;;;;;3.30;2.70;;;;;;;43.76;42.85;100042.70;105315;1302;72424;-85
2023/07/01 09:03:18;;;;;;;3.00;2.50;;;;;;;43.74;41.37;100040.91;105324;1303;58984;-85
2023/07/01 09:06:17;;;;;;;4.00;2.40;;;;;;;41.59;40.54;100037.30;105289;1301;59507;-85
2023/07/01 09:09:03;;;;;;;6.90;2.30;;;;;;;39.03;40.20;100029.57;105374;1300;73490;-85
2023/07/01 09:12:11;;;;;;;4.80;2.60;;;;;;;37.04;39.93;100023.84;105336;1302;68524;-84
2023/07/01 09:15:04;;;;;;;2.00;1.60;;;;;;;35.54;39.39;100018.27;105364;1302;71344;-85
2023/07/01 09:18:34;;;;;;;3.20;1.60;;;;;;;34.24;38.76;100010.98;105310;1301;59075;-87
2023/07/01 09:22:21;;;;;;;1.80;1.70;;;;;;;32.76;38.29;100007.73;105451;1299;59043;-89
2023/07/01 09:26:10;;;;;;;4.20;1.70;;;;;;;31.62;37.95;100003.12;105347;1300;73412;-87
2023/07/01 09:29:57;;;;;;;25.10;10.10;;;;;;;30.56;37.77;99997.75;105154;1301;266906;-88
2023/07/01 09:33:51;;;;;;;6.20;2.50;;;;;;;29.60;37.57;99991.94;105357;1302;71399;-88
2023/07/01 09:37:37;;;;;;;2.10;1.70;;;;;;;28.82;37.78;99996.56;104920;1307;59200;-89
2023/07/01 09:41:33;;;;;;;4.80;1.80;;;;;;;28.27;37.54;99992.23;104924;1305;59537;-89
2023/07/01 09:45:28;;;;;;;22.60;8.10;;;;;;;27.68;37.74;99987.64;104904;1307;73862;-88
2023/07/01 09:49:15;;;;;;;4.30;2.00;;;;;;;27.28;37.84;99982.48;104904;1305;68038;-87
2023/07/01 09:53:10;;;;;;;8.00;1.70;;;;;;;26.82;38.07;99978.31;104847;1308;71685;-88
2023/07/01 09:56:57;;;;;;;2.10;1.90;;;;;;;26.47;38.45;99974.56;104876;1305;59371;-87
2023/07/01 10:00:43;;;;;;;3.00;1.80;;;;;;;26.29;38.79;99971.44;104904;1305;59274;-87
2023/07/01 10:04:30;;;;;;;2.70;1.50;;;;;;;26.16;38.75;99967.17;104852;1306;74573;-87
2023/07/01 10:08:16;;;;;;;3.10;1.60;;;;;;;25.98;38.82;99956.83;104868;1306;68548;-88
2023/07/01 10:12:03;;;;;;;2.30;1.70;;;;;;;25.66;39.01;99952.64;104865;1305;73609;-87
2023/07/01 10:15:52;;;;;;;3.30;2.20;;;;;;;25.46;39.44;99952.34;104797;1307;59120;-88
2023/07/01 10:19:46;;;;;;;5.80;1.60;;;;;;;25.38;39.67;99940.46;104846;1308;60231;-87
2023/07/01 10:23:32;;;;;;;4.20;1.80;;;;;;;25.41;39.71;99941.98;104819;1306;74624;-87
2023/07/01 10:27:18;;;;;;;7.00;1.70;;;;;;;25.27;39.82;99937.45;104833;1310;68373;-87
2023/07/01 10:30:44;;;;;;;4.90;2.00;;;;;;;25.07;39.95;99933.89;104804;1308;73502;-88
2023/07/01 10:34:31;;;;;;;6.40;1.90;;;;;;;25.05;40.42;99929.82;104867;1307;59166;-87
2023/07/01 10:38:15;;;;;;;1.90;1.50;;;;;;;25.03;40.55;99919.93;104813;1306;59149;-88
2023/07/01 10:42:11;;;;;;;5.00;2.00;;;;;;;25.04;40.86;99916.54;104835;1307;75555;-88
2023/07/01 10:45:58;;;;;;;7.50;1.70;;;;;;;25.04;40.77;99902.39;105014;1302;68468;-88
2023/07/01 10:49:44;;;;;;;3.30;1.90;;;;;;;25.08;41.14;99902.55;105288;1305;72676;-88
2023/07/01 10:53:34;;;;;;;3.70;1.70;;;;;;;25.05;40.89;99898.75;104485;1309;58983;-88
2023/07/01 10:57:27;;;;;;;5.90;1.50;;;;;;;25.05;41.29;99897.19;103741;1316;59239;-88
2023/07/01 11:01:17;;;;;;;6.60;1.70;;;;;;;25.08;41.51;99890.17;103328;1322;73489;-87
2023/07/01 11:05:12;;;;;;;2.50;2.10;;;;;;;25.21;41.82;99888.05;103362;1321;68664;-86
2023/07/01 11:09:05;;;;;;;1.20;1.20;;;;;;;25.17;41.66;99872.90;102914;1328;71565;-87
2023/07/01 11:12:52;;;;;;;4.30;2.10;;;;;;;25.09;41.63;99864.78;102517;1336;59641;-87
2023/07/01 11:16:48;;;;;;;1.40;1.30;;;;;;;25.06;41.92;99864.97;102516;1336;59310;-87
2023/07/01 11:20:33;;;;;;;1.40;1.30;;;;;;;25.16;42.08;99860.09;102501;1336;73327;-87
2023/07/01 11:24:26;;;;;;;32.10;21.40;;;;;;;25.28;42.13;99856.52;102451;1334;69466;-87
2023/07/01 11:28:11;;;;;;;6.40;3.80;;;;;;;25.27;41.95;99849.39;102195;1340;72227;-86
2023/07/01 11:31:58;;;;;;;5.70;3.10;;;;;;;25.26;42.26;99854.10;102743;1331;59646;-87
2023/07/01 11:35:22;;;;;;;18.90;13.10;;;;;;;25.25;42.08;99849.00;103104;1326;59504;-86
2023/07/01 11:38:52;;;;;;;5.00;2.90;;;;;;;25.24;42.13;99842.59;103419;1320;73381;-86
2023/07/01 11:42:38;;;;;;;11.50;7.30;;;;;;;25.23;42.27;99840.55;103433;1319;67595;-87
2023/07/01 11:46:24;;;;;;;47.90;30.60;;;;;;;25.28;42.40;99840.61;103943;1314;71601;-87
2023/07/01 11:50:10;;;;;;;34.10;25.80;;;;;;;25.43;42.62;99829.08;104560;1308;59593;-87
2023/07/01 11:53:56;;;;;;;36.80;28.60;;;;;;;25.53;42.43;99827.04;104324;1310;59376;-87
2023/07/01 11:57:49;;;;;;;5.60;5.10;;;;;;;25.60;42.89;99828.20;104327;1311;74755;-87
2023/07/01 12:01:41;;;;;;;10.30;7.00;;;;;;;25.79;42.79;99822.98;104363;1310;68034;-87
2023/07/01 12:05:27;;;;;;;5.60;4.50;;;;;;;25.91;42.90;99823.83;105052;1302;72382;-87
2023/07/01 12:09:31;;;;;;;9.00;5.50;;;;;;;26.01;42.90;99818.71;105026;1302;82072;-87
2023/07/01 12:13:17;;;;;;;9.40;6.40;;;;;;;26.18;42.74;99817.65;105140;1302;59508;-87
2023/07/01 12:17:03;;;;;;;31.80;12.00;;;;;;;26.18;42.61;99818.71;105084;1302;73473;-87
2023/07/01 12:20:51;;;;;;;13.70;8.40;;;;;;;26.13;42.80;99813.02;105141;1303;68754;-87
2023/07/01 12:24:36;;;;;;;9.80;4.50;;;;;;;26.17;42.97;99803.69;105197;1301;71395;-86
2023/07/01 12:28:22;;;;;;;8.90;6.40;;;;;;;26.15;42.95;99801.21;105081;1303;59411;-87
2023/07/01 12:32:09;;;;;;;8.20;4.80;;;;;;;26.14;42.92;99802.19;105082;1302;60251;-87
2023/07/01 12:35:55;;;;;;;10.30;4.30;;;;;;;26.13;42.84;99800.33;105130;1302;73418;-87
2023/07/01 12:39:44;;;;;;;6.50;5.00;;;;;;;26.01;42.74;99798.80;105111;1302;67559;-87
2023/07/01 12:43:28;;;;;;;11.40;4.10;;;;;;;25.97;43.04;99793.75;105109;1302;71727;-87
2023/07/01 12:47:16;;;;;;;4.60;3.00;;;;;;;25.99;43.23;99791.73;105128;1302;58997;-87
2023/07/01 12:51:02;;;;;;;4.10;2.50;;;;;;;25.91;43.14;99787.91;105072;1302;59389;-87
2023/07/01 12:54:52;;;;;;;8.90;3.00;;;;;;;25.76;43.17;99775.38;105091;1302;74461;-87
2023/07/01 12:58:20;;;;;;;5.70;3.60;;;;;;;25.71;43.17;99779.15;105200;1305;68003;-86
2023/07/01 13:01:46;;;;;;;7.10;3.70;;;;;;;25.64;43.11;99779.96;105326;1301;71459;-87
2023/07/01 13:05:35;;;;;;;4.00;2.90;;;;;;;25.55;43.04;99776.38;105303;1302;58930;-87
2023/07/01 13:09:22;;;;;;;4.80;3.40;;;;;;;25.45;43.07;99766.08;105353;1300;60198;-88
2023/07/01 13:13:09;;;;;;;3.80;3.50;;;;;;;25.35;43.15;99770.81;101409;1302;76548;-88
2023/07/01 13:17:06;;;;;;;3.40;3.00;;;;;;;25.29;43.33;99765.60;105325;1302;72430;-89
2023/07/01 13:20:53;;;;;;;4.40;3.60;;;;;;;25.34;43.39;99756.27;104851;1307;59143;-87
2023/07/01 13:24:39;;;;;;;4.00;3.50;;;;;;;25.37;43.53;99747.73;104903;1307;59191;-89
2023/07/01 13:28:03;;;;;;;7.10;3.70;;;;;;;25.38;43.66;99750.42;104825;1306;73223;-87
2023/07/01 13:31:24;;;;;;;4.80;4.30;;;;;;;25.35;43.67;99746.48;104662;1306;68679;-86
2023/07/01 13:35:10;;;;;;;7.00;4.10;;;;;;;25.32;43.73;99745.52;104838;1305;71400;-86
2023/07/01 13:38:37;;;;;;;4.70;4.30;;;;;;;25.30;44.03;99742.50;104851;1308;58860;-86
2023/07/01 13:42:04;;;;;;;10.20;5.10;;;;;;;25.30;44.16;99738.99;104733;1308;59119;-86
2023/07/01 13:45:23;;;;;;;6.50;4.90;;;;;;;25.35;44.19;99738.70;104663;1305;73359;-86
2023/07/01 13:48:47;;;;;;;5.40;4.80;;;;;;;25.39;44.05;99733.20;104845;1306;66986;-86
2023/07/01 13:51:57;;;;;;;8.40;5.50;;;;;;;25.37;44.28;99727.77;104230;1311;73232;-86
2023/07/01 13:55:08;;;;;;;9.80;7.30;;;;;;;25.37;44.22;99720.89;104258;1311;59356;-86
2023/07/01 13:59:03;;;;;;;10.20;9.00;;;;;;;25.37;44.37;99718.55;104702;1307;61081;-87
2023/07/01 14:02:29;;;;;;;5.20;4.70;;;;;;;25.40;44.55;99714.42;104689;1308;74783;-86
2023/07/01 14:06:12;;;;;;;8.10;7.40;;;;;;;25.48;44.50;99713.85;104575;1308;67587;-87
2023/07/01 14:10:01;;;;;;;6.10;5.50;;;;;;;25.54;44.51;99713.09;104699;1308;72565;-86
2023/07/01 14:13:30;;;;;;;6.70;5.00;;;;;;;25.58;44.47;99707.95;104681;1308;59023;-87
2023/07/01 14:16:57;;;;;;;7.10;5.10;;;;;;;25.60;44.50;99707.23;104691;1309;59721;-87
2023/07/01 14:20:43;;;;;;;6.20;5.10;;;;;;;25.60;44.55;99703.75;104724;1307;73917;-87
2023/07/01 14:24:28;;;;;;;7.20;5.10;;;;;;;25.54;44.36;99695.31;104667;1308;67424;-87
2023/07/01 14:28:15;;;;;;;8.40;5.00;;;;;;;25.45;44.50;99689.81;105132;1303;70291;-86
2023/07/01 14:32:14;;;;;;;5.20;4.70;;;;;;;25.34;44.40;99687.63;105316;1302;59074;-86
2023/07/01 14:35:35;;;;;;;5.20;4.70;;;;;;;25.22;44.37;99681.36;105365;1301;60121;-86
2023/07/01 14:38:43;;;;;;;6.30;5.10;;;;;;;25.13;44.45;99680.43;105371;1302;73460;-86
2023/07/01 14:42:12;;;;;;;6.10;5.10;;;;;;;25.14;44.62;99683.38;105293;1303;68660;-87
2023/07/01 14:45:26;;;;;;;5.70;5.20;;;;;;;25.12;44.63;99673.13;105345;1302;71448;-86
2023/07/01 14:49:10;;;;;;;5.70;5.20;;;;;;;25.11;44.83;99665.25;105217;1303;59198;-87
2023/07/01 14:52:39;;;;;;;5.50;5.00;;;;;;;25.14;44.89;99668.92;105262;1302;59188;-86
2023/07/01 14:56:09;;;;;;;8.60;7.80;;;;;;;25.16;44.93;99669.06;105289;1301;74690;-86
2023/07/01 14:59:56;;;;;;;10.20;8.80;;;;;;;25.17;45.05;99667.55;105393;1301;67239;-87
2023/07/01 15:03:45;;;;;;;34.00;23.80;;;;;;;25.21;45.24;99662.80;105319;1301;72477;-86
2023/07/01 15:06:56;;;;;;;14.20;10.30;;;;;;;25.28;45.27;99661.41;105081;1305;59209;-85
2023/07/01 15:10:22;;;;;;;66.10;40.90;;;;;;;25.34;45.25;99662.27;105008;1308;59212;-86
2023/07/01 15:13:09;;;;;;;80.00;45.20;;;;;;;25.32;45.33;99665.05;105035;1305;74481;-85
2023/07/01 15:15:57;;;;;;;;;;;;;;;25.32;45.47;99665.45;104908;1308;67341;-85
2023/07/01 15:18:43;;;;;;;8.30;7.50;;;;;;;25.30;45.40;99659.41;104835;1308;72524;-86
2023/07/01 15:21:30;;;;;;;6.00;5.50;;;;;;;25.29;45.40;99656.35;104886;1303;59263;-85
2023/07/01 15:24:17;;;;;;;8.40;6.60;;;;;;;25.29;45.59;99653.70;104886;1305;59097;-86
2023/07/01 15:27:16;;;;;;;6.20;5.70;;;;;;;25.30;45.53;99649.61;105062;1305;74642;-85
2023/07/01 15:30:28;;;;;;;5.80;5.30;;;;;;;25.22;45.50;99650.87;105056;1305;68368;-85
2023/07/01 15:33:19;;;;;;;9.70;5.00;;;;;;;25.09;45.59;99648.01;105014;1306;71267;-85
2023/07/01 15:36:05;;;;;;;5.40;4.80;;;;;;;25.01;45.73;99644.48;104854;1305;59116;-85
2023/07/01 15:38:51;;;;;;;9.40;4.50;;;;;;;25.06;45.82;99642.58;105206;1302;59713;-85
2023/07/01 15:41:38;;;;;;;4.40;4.00;;;;;;;25.15;45.79;99634.92;105235;1303;73787;-85
2023/07/01 15:44:29;;;;;;;5.80;4.90;;;;;;;25.21;45.81;99633.85;105132;1301;68580;-85
2023/07/01 15:47:57;;;;;;;6.00;4.60;;;;;;;25.19;45.67;99630.88;105234;1309;70489;-86
2023/07/01 15:51:20;;;;;;;5.00;4.40;;;;;;;25.17;45.72;99630.70;105227;1302;59046;-85
2023/07/01 15:54:14;;;;;;;7.10;6.40;;;;;;;25.17;45.79;99630.52;105343;1302;59044;-85
2023/07/01 15:57:00;;;;;;;6.80;5.70;;;;;;;25.15;45.76;99628.38;105233;1302;74587;-85
2023/07/01 16:00:35;;;;;;;5.20;4.60;;;;;;;25.14;45.85;99630.55;105283;1303;68425;-86
2023/07/01 16:03:38;;;;;;;13.40;12.00;;;;;;;25.12;45.81;99625.28;105295;1302;72536;-85
2023/07/01 16:07:04;;;;;;;15.80;14.20;;;;;;;25.11;45.78;99625.60;105211;1300;59452;-86
2023/07/01 16:10:19;;;;;;;8.70;7.00;;;;;;;25.09;45.70;99623.95;105290;1301;59291;-86
2023/07/01 16:13:13;;;;;;;9.00;6.40;;;;;;;25.05;45.67;99626.77;105258;1302;73655;-85
2023/07/01 16:16:02;;;;;;;6.10;5.60;;;;;;;25.02;45.73;99629.35;105292;1305;68672;-85
2023/07/01 16:18:50;;;;;;;5.40;4.80;;;;;;;24.98;45.50;99628.86;105199;1303;71417;-85
2023/07/01 16:21:46;;;;;;;6.70;3.80;;;;;;;24.92;45.33;99632.45;105382;1301;59172;-86
2023/07/01 16:24:53;;;;;;;12.40;9.90;;;;;;;24.85;45.31;99634.15;105308;1302;59182;-86
2023/07/01 16:28:05;;;;;;;6.70;6.10;;;;;;;24.78;45.26;99640.05;105270;1301;73524;-86
2023/07/01 16:31:03;;;;;;;4.60;3.30;;;;;;;24.72;45.13;99641.86;105276;1303;67477;-85
2023/07/01 16:34:01;;;;;;;5.60;4.30;;;;;;;24.62;44.99;99641.69;105225;1302;71310;-85
2023/07/01 16:36:47;;;;;;;5.10;3.10;;;;;;;24.55;45.03;99641.98;105191;1302;59211;-85